sensor_id;sensor_type;location;lat;lon;timestamp;temperature;humidity
42339;DHT22;27993;45.392;10.918;2023-02-19T00:01:26;7.20;99.90
42339;DHT22;27993;45.392;10.918;2023-02-19T00:04:02;7.20;99.90
42339;DHT22;27993;45.392;10.918;2023-02-19T00:06:34;7.30;99.90
42339;DHT22;27993;45.392;10.918;2023-02-19T00:09:05;7.10;99.90
42339;DHT22;27993;45.392;10.918;2023-02-19T00:11:36;7.20;99.90
42339;DHT22;27993;45.392;10.918;2023-02-19T00:14:07;7.00;99.90
42339;DHT22;27993;45.392;10.918;2023-02-19T00:16:39;6.90;99.90
42339;DHT22;27993;45.392;10.918;2023-02-19T00:19:13;6.80;99.90
42339;DHT22;27993;45.392;10.918;2023-02-19T00:21:44;7.00;99.90
42339;DHT22;27993;45.392;10.918;2023-02-19T00:24:15;7.00;99.90
42339;DHT22;27993;45.392;10.918;2023-02-19T00:26:46;7.10;99.90
42339;DHT22;27993;45.392;10.918;2023-02-19T00:29:19;7.20;99.90
42339;DHT22;27993;45.392;10.918;2023-02-19T00:31:50;7.20;99.90
42339;DHT22;27993;45.392;10.918;2023-02-19T00:34:21;7.20;99.90
42339;DHT22;27993;45.392;10.918;2023-02-19T00:36:51;7.20;99.90
42339;DHT22;27993;45.392;10.918;2023-02-19T00:39:22;7.20;99.90
42339;DHT22;27993;45.392;10.918;2023-02-19T00:41:53;7.30;99.90
42339;DHT22;27993;45.392;10.918;2023-02-19T00:44:23;7.20;99.90
42339;DHT22;27993;45.392;10.918;2023-02-19T00:46:54;7.30;99.90
42339;DHT22;27993;45.392;10.918;2023-02-19T00:49:25;7.30;99.90
42339;DHT22;27993;45.392;10.918;2023-02-19T00:51:55;7.30;99.90
42339;DHT22;27993;45.392;10.918;2023-02-19T00:54:26;7.30;99.90
42339;DHT22;27993;45.392;10.918;2023-02-19T00:56:57;7.30;99.90
42339;DHT22;27993;45.392;10.918;2023-02-19T00:59:27;7.30;99.90
42339;DHT22;27993;45.392;10.918;2023-02-19T01:01:58;7.30;99.90
42339;DHT22;27993;45.392;10.918;2023-02-19T01:04:29;7.30;99.90
42339;DHT22;27993;45.392;10.918;2023-02-19T01:06:59;7.20;99.90
42339;DHT22;27993;45.392;10.918;2023-02-19T01:09:30;7.30;99.90
42339;DHT22;27993;45.392;10.918;2023-02-19T01:12:01;7.20;99.90
42339;DHT22;27993;45.392;10.918;2023-02-19T01:14:31;7.20;99.90
42339;DHT22;27993;45.392;10.918;2023-02-19T01:17:03;7.30;99.90
42339;DHT22;27993;45.392;10.918;2023-02-19T01:19:33;7.30;99.90
42339;DHT22;27993;45.392;10.918;2023-02-19T01:22:04;7.30;99.90
42339;DHT22;27993;45.392;10.918;2023-02-19T01:24:34;7.30;99.90
42339;DHT22;27993;45.392;10.918;2023-02-19T01:27:05;7.40;99.90
42339;DHT22;27993;45.392;10.918;2023-02-19T01:29:36;7.40;99.90
42339;DHT22;27993;45.392;10.918;2023-02-19T01:32:06;7.40;99.90
42339;DHT22;27993;45.392;10.918;2023-02-19T01:34:37;7.40;99.90
42339;DHT22;27993;45.392;10.918;2023-02-19T01:37:08;7.30;99.90
42339;DHT22;27993;45.392;10.918;2023-02-19T01:39:41;7.40;99.90
42339;DHT22;27993;45.392;10.918;2023-02-19T01:42:15;7.30;99.90
42339;DHT22;27993;45.392;10.918;2023-02-19T01:47:18;7.10;99.90
42339;DHT22;27993;45.392;10.918;2023-02-19T01:49:53;6.70;99.90
42339;DHT22;27993;45.392;10.918;2023-02-19T01:52:31;6.60;99.90
42339;DHT22;27993;45.392;10.918;2023-02-19T01:55:05;6.50;99.90
42339;DHT22;27993;45.392;10.918;2023-02-19T01:57:40;6.20;99.90
42339;DHT22;27993;45.392;10.918;2023-02-19T02:00:14;6.40;99.90
42339;DHT22;27993;45.392;10.918;2023-02-19T02:02:48;6.60;99.90
42339;DHT22;27993;45.392;10.918;2023-02-19T02:05:49;6.70;99.90
42339;DHT22;27993;45.392;10.918;2023-02-19T02:08:23;6.70;99.90
42339;DHT22;27993;45.392;10.918;2023-02-19T02:11:13;6.40;99.90
42339;DHT22;27993;45.392;10.918;2023-02-19T02:13:44;6.30;99.90
42339;DHT22;27993;45.392;10.918;2023-02-19T02:22:06;6.40;99.90
42339;DHT22;27993;45.392;10.918;2023-02-19T02:30:38;6.50;99.90
42339;DHT22;27993;45.392;10.918;2023-02-19T02:38:22;6.60;99.90
42339;DHT22;27993;45.392;10.918;2023-02-19T02:40:54;6.60;99.90
42339;DHT22;27993;45.392;10.918;2023-02-19T02:43:26;6.60;99.90
42339;DHT22;27993;45.392;10.918;2023-02-19T02:45:57;6.70;99.90
42339;DHT22;27993;45.392;10.918;2023-02-19T02:51:19;6.70;99.90
42339;DHT22;27993;45.392;10.918;2023-02-19T02:57:01;6.80;99.90
42339;DHT22;27993;45.392;10.918;2023-02-19T02:59:36;6.80;99.90
42339;DHT22;27993;45.392;10.918;2023-02-19T03:02:16;6.70;99.90
42339;DHT22;27993;45.392;10.918;2023-02-19T03:07:59;6.70;99.90
42339;DHT22;27993;45.392;10.918;2023-02-19T03:10:56;6.60;99.90
42339;DHT22;27993;45.392;10.918;2023-02-19T03:13:32;6.60;99.90
42339;DHT22;27993;45.392;10.918;2023-02-19T03:16:27;6.60;99.90
42339;DHT22;27993;45.392;10.918;2023-02-19T03:19:19;6.50;99.90
42339;DHT22;27993;45.392;10.918;2023-02-19T03:21:59;6.60;99.90
42339;DHT22;27993;45.392;10.918;2023-02-19T03:24:32;6.50;99.90
42339;DHT22;27993;45.392;10.918;2023-02-19T03:27:25;6.40;99.90
42339;DHT22;27993;45.392;10.918;2023-02-19T03:30:00;6.40;99.90
42339;DHT22;27993;45.392;10.918;2023-02-19T03:32:39;6.50;99.90
42339;DHT22;27993;45.392;10.918;2023-02-19T03:35:16;6.50;99.90
42339;DHT22;27993;45.392;10.918;2023-02-19T03:38:12;6.50;99.90
42339;DHT22;27993;45.392;10.918;2023-02-19T03:41:09;6.50;99.90
42339;DHT22;27993;45.392;10.918;2023-02-19T03:44:10;6.40;99.90
42339;DHT22;27993;45.392;10.918;2023-02-19T03:49:39;6.40;99.90
42339;DHT22;27993;45.392;10.918;2023-02-19T03:57:44;6.50;99.90
42339;DHT22;27993;45.392;10.918;2023-02-19T04:06:16;6.60;99.90
42339;DHT22;27993;45.392;10.918;2023-02-19T04:08:51;6.50;99.90
42339;DHT22;27993;45.392;10.918;2023-02-19T04:11:23;6.50;99.90
42339;DHT22;27993;45.392;10.918;2023-02-19T04:14:05;6.60;99.90
42339;DHT22;27993;45.392;10.918;2023-02-19T04:16:39;6.50;99.90
42339;DHT22;27993;45.392;10.918;2023-02-19T04:19:13;6.60;99.90
42339;DHT22;27993;45.392;10.918;2023-02-19T04:21:46;6.60;99.90
42339;DHT22;27993;45.392;10.918;2023-02-19T04:24:46;6.60;99.90
42339;DHT22;27993;45.392;10.918;2023-02-19T04:27:18;6.60;99.90
42339;DHT22;27993;45.392;10.918;2023-02-19T04:29:48;6.60;99.90
42339;DHT22;27993;45.392;10.918;2023-02-19T04:32:19;6.70;99.90
42339;DHT22;27993;45.392;10.918;2023-02-19T04:34:50;6.60;99.90
42339;DHT22;27993;45.392;10.918;2023-02-19T04:37:20;6.60;99.90
42339;DHT22;27993;45.392;10.918;2023-02-19T04:39:51;6.60;99.90
42339;DHT22;27993;45.392;10.918;2023-02-19T04:42:22;6.70;99.90
42339;DHT22;27993;45.392;10.918;2023-02-19T04:44:52;6.60;99.90
42339;DHT22;27993;45.392;10.918;2023-02-19T04:47:23;6.60;99.90
42339;DHT22;27993;45.392;10.918;2023-02-19T04:49:54;6.70;99.90
42339;DHT22;27993;45.392;10.918;2023-02-19T04:52:25;6.60;99.90
42339;DHT22;27993;45.392;10.918;2023-02-19T04:54:55;6.60;99.90
42339;DHT22;27993;45.392;10.918;2023-02-19T04:57:26;6.70;99.90
42339;DHT22;27993;45.392;10.918;2023-02-19T04:59:57;6.60;99.90
42339;DHT22;27993;45.392;10.918;2023-02-19T05:02:27;6.60;99.90
42339;DHT22;27993;45.392;10.918;2023-02-19T05:04:58;6.60;99.90
42339;DHT22;27993;45.392;10.918;2023-02-19T05:07:28;6.60;99.90
42339;DHT22;27993;45.392;10.918;2023-02-19T05:09:59;6.60;99.90
42339;DHT22;27993;45.392;10.918;2023-02-19T05:12:30;6.50;99.90
42339;DHT22;27993;45.392;10.918;2023-02-19T05:15:00;6.60;99.90
42339;DHT22;27993;45.392;10.918;2023-02-19T05:17:34;6.70;99.90
42339;DHT22;27993;45.392;10.918;2023-02-19T05:20:05;6.70;99.90
42339;DHT22;27993;45.392;10.918;2023-02-19T05:22:35;6.70;99.90
42339;DHT22;27993;45.392;10.918;2023-02-19T05:25:06;6.70;99.90
42339;DHT22;27993;45.392;10.918;2023-02-19T05:27:37;6.80;99.90
42339;DHT22;27993;45.392;10.918;2023-02-19T05:30:08;6.80;99.90
42339;DHT22;27993;45.392;10.918;2023-02-19T05:32:39;6.70;99.90
42339;DHT22;27993;45.392;10.918;2023-02-19T05:35:09;6.50;99.90
42339;DHT22;27993;45.392;10.918;2023-02-19T05:37:40;6.40;99.90
42339;DHT22;27993;45.392;10.918;2023-02-19T05:40:11;6.20;99.90
42339;DHT22;27993;45.392;10.918;2023-02-19T05:42:41;6.30;99.90
42339;DHT22;27993;45.392;10.918;2023-02-19T05:45:12;6.40;99.90
42339;DHT22;27993;45.392;10.918;2023-02-19T05:47:42;6.50;99.90
42339;DHT22;27993;45.392;10.918;2023-02-19T05:50:13;6.60;99.90
42339;DHT22;27993;45.392;10.918;2023-02-19T05:52:44;6.60;99.90
42339;DHT22;27993;45.392;10.918;2023-02-19T05:55:14;6.70;99.90
42339;DHT22;27993;45.392;10.918;2023-02-19T05:57:46;6.50;99.90
42339;DHT22;27993;45.392;10.918;2023-02-19T06:00:17;6.40;99.90
42339;DHT22;27993;45.392;10.918;2023-02-19T06:02:48;6.40;99.90
42339;DHT22;27993;45.392;10.918;2023-02-19T06:05:19;6.20;99.90
42339;DHT22;27993;45.392;10.918;2023-02-19T06:07:50;6.00;99.90
42339;DHT22;27993;45.392;10.918;2023-02-19T06:10:21;6.10;99.90
42339;DHT22;27993;45.392;10.918;2023-02-19T06:12:52;6.10;99.90
42339;DHT22;27993;45.392;10.918;2023-02-19T06:15:23;6.00;99.90
42339;DHT22;27993;45.392;10.918;2023-02-19T06:17:53;5.90;99.90
42339;DHT22;27993;45.392;10.918;2023-02-19T06:20:24;6.00;99.90
42339;DHT22;27993;45.392;10.918;2023-02-19T06:22:55;5.90;99.90
42339;DHT22;27993;45.392;10.918;2023-02-19T06:25:25;6.00;99.90
42339;DHT22;27993;45.392;10.918;2023-02-19T06:27:56;6.20;99.90
42339;DHT22;27993;45.392;10.918;2023-02-19T06:30:27;6.20;99.90
42339;DHT22;27993;45.392;10.918;2023-02-19T06:32:57;6.20;99.90
42339;DHT22;27993;45.392;10.918;2023-02-19T06:35:28;6.30;99.90
42339;DHT22;27993;45.392;10.918;2023-02-19T06:37:58;6.30;99.90
42339;DHT22;27993;45.392;10.918;2023-02-19T06:40:29;6.40;99.90
42339;DHT22;27993;45.392;10.918;2023-02-19T06:43:00;6.50;99.90
42339;DHT22;27993;45.392;10.918;2023-02-19T06:45:30;6.40;99.90
42339;DHT22;27993;45.392;10.918;2023-02-19T06:48:01;6.40;99.90
42339;DHT22;27993;45.392;10.918;2023-02-19T06:50:31;6.30;99.90
42339;DHT22;27993;45.392;10.918;2023-02-19T06:53:02;6.30;99.90
42339;DHT22;27993;45.392;10.918;2023-02-19T06:55:33;6.30;99.90
42339;DHT22;27993;45.392;10.918;2023-02-19T06:58:03;6.30;99.90
42339;DHT22;27993;45.392;10.918;2023-02-19T07:00:34;6.30;99.90
42339;DHT22;27993;45.392;10.918;2023-02-19T07:03:05;6.30;99.90
42339;DHT22;27993;45.392;10.918;2023-02-19T07:05:36;6.40;99.90
42339;DHT22;27993;45.392;10.918;2023-02-19T07:08:06;6.50;99.90
42339;DHT22;27993;45.392;10.918;2023-02-19T07:10:37;6.40;99.90
42339;DHT22;27993;45.392;10.918;2023-02-19T07:13:07;6.60;99.90
42339;DHT22;27993;45.392;10.918;2023-02-19T07:15:38;6.70;99.90
42339;DHT22;27993;45.392;10.918;2023-02-19T07:18:09;6.70;99.90
42339;DHT22;27993;45.392;10.918;2023-02-19T07:20:39;6.60;99.90
42339;DHT22;27993;45.392;10.918;2023-02-19T07:23:10;6.60;99.90
42339;DHT22;27993;45.392;10.918;2023-02-19T07:25:41;6.70;99.90
42339;DHT22;27993;45.392;10.918;2023-02-19T07:28:11;6.70;99.90
42339;DHT22;27993;45.392;10.918;2023-02-19T07:30:42;6.70;99.90
42339;DHT22;27993;45.392;10.918;2023-02-19T07:33:12;6.70;99.90
42339;DHT22;27993;45.392;10.918;2023-02-19T07:35:47;6.70;99.90
42339;DHT22;27993;45.392;10.918;2023-02-19T07:38:19;6.80;99.90
42339;DHT22;27993;45.392;10.918;2023-02-19T07:40:55;6.80;99.90
42339;DHT22;27993;45.392;10.918;2023-02-19T07:43:29;6.80;99.90
42339;DHT22;27993;45.392;10.918;2023-02-19T07:46:04;6.70;99.90
42339;DHT22;27993;45.392;10.918;2023-02-19T07:48:36;6.70;99.90
42339;DHT22;27993;45.392;10.918;2023-02-19T07:51:13;6.80;99.90
42339;DHT22;27993;45.392;10.918;2023-02-19T07:53:47;6.80;99.90
42339;DHT22;27993;45.392;10.918;2023-02-19T07:56:19;6.80;99.90
42339;DHT22;27993;45.392;10.918;2023-02-19T07:58:50;6.80;99.90
42339;DHT22;27993;45.392;10.918;2023-02-19T08:01:22;6.80;99.90
42339;DHT22;27993;45.392;10.918;2023-02-19T08:04:13;6.90;99.90
42339;DHT22;27993;45.392;10.918;2023-02-19T08:06:43;6.90;99.90
42339;DHT22;27993;45.392;10.918;2023-02-19T08:09:14;6.90;99.90
42339;DHT22;27993;45.392;10.918;2023-02-19T08:11:45;6.80;99.90
42339;DHT22;27993;45.392;10.918;2023-02-19T08:14:34;6.80;99.90
42339;DHT22;27993;45.392;10.918;2023-02-19T08:17:05;6.90;99.90
42339;DHT22;27993;45.392;10.918;2023-02-19T08:19:36;7.00;99.90
42339;DHT22;27993;45.392;10.918;2023-02-19T08:22:06;6.90;99.90
42339;DHT22;27993;45.392;10.918;2023-02-19T08:24:37;6.90;99.90
42339;DHT22;27993;45.392;10.918;2023-02-19T08:27:12;6.90;99.90
42339;DHT22;27993;45.392;10.918;2023-02-19T08:29:42;6.90;99.90
42339;DHT22;27993;45.392;10.918;2023-02-19T08:32:13;6.90;99.90
42339;DHT22;27993;45.392;10.918;2023-02-19T08:34:43;6.80;99.90
42339;DHT22;27993;45.392;10.918;2023-02-19T08:37:14;6.90;99.90
42339;DHT22;27993;45.392;10.918;2023-02-19T08:39:45;7.00;99.90
42339;DHT22;27993;45.392;10.918;2023-02-19T08:42:15;6.90;99.90
42339;DHT22;27993;45.392;10.918;2023-02-19T08:44:46;6.90;99.90
42339;DHT22;27993;45.392;10.918;2023-02-19T08:47:16;6.90;99.90
42339;DHT22;27993;45.392;10.918;2023-02-19T08:49:47;7.00;99.90
42339;DHT22;27993;45.392;10.918;2023-02-19T08:52:18;7.10;99.90
42339;DHT22;27993;45.392;10.918;2023-02-19T08:54:48;7.10;99.90
42339;DHT22;27993;45.392;10.918;2023-02-19T08:57:19;7.20;99.90
42339;DHT22;27993;45.392;10.918;2023-02-19T08:59:50;7.30;99.90
42339;DHT22;27993;45.392;10.918;2023-02-19T09:02:20;7.30;99.90
42339;DHT22;27993;45.392;10.918;2023-02-19T09:04:51;7.30;99.90
42339;DHT22;27993;45.392;10.918;2023-02-19T09:07:22;7.40;99.90
42339;DHT22;27993;45.392;10.918;2023-02-19T09:09:53;7.40;99.90
42339;DHT22;27993;45.392;10.918;2023-02-19T09:12:24;7.50;99.90
42339;DHT22;27993;45.392;10.918;2023-02-19T09:14:54;7.60;99.90
42339;DHT22;27993;45.392;10.918;2023-02-19T09:17:26;7.50;99.90
42339;DHT22;27993;45.392;10.918;2023-02-19T09:19:56;7.60;99.90
42339;DHT22;27993;45.392;10.918;2023-02-19T09:22:27;7.70;99.90
42339;DHT22;27993;45.392;10.918;2023-02-19T09:24:58;7.80;99.90
42339;DHT22;27993;45.392;10.918;2023-02-19T09:27:28;7.90;99.90
42339;DHT22;27993;45.392;10.918;2023-02-19T09:30:01;7.90;99.90
42339;DHT22;27993;45.392;10.918;2023-02-19T09:32:32;8.00;99.90
42339;DHT22;27993;45.392;10.918;2023-02-19T09:35:03;8.00;99.90
42339;DHT22;27993;45.392;10.918;2023-02-19T09:37:33;8.10;99.90
42339;DHT22;27993;45.392;10.918;2023-02-19T09:40:04;8.20;99.90
42339;DHT22;27993;45.392;10.918;2023-02-19T09:42:35;8.20;99.90
42339;DHT22;27993;45.392;10.918;2023-02-19T09:45:15;8.20;99.90
42339;DHT22;27993;45.392;10.918;2023-02-19T09:47:48;8.20;99.90
42339;DHT22;27993;45.392;10.918;2023-02-19T09:50:23;8.10;99.90
42339;DHT22;27993;45.392;10.918;2023-02-19T09:52:59;8.20;99.90
42339;DHT22;27993;45.392;10.918;2023-02-19T09:55:38;8.20;99.90
42339;DHT22;27993;45.392;10.918;2023-02-19T09:58:33;8.20;99.90
42339;DHT22;27993;45.392;10.918;2023-02-19T10:01:04;8.30;99.90
42339;DHT22;27993;45.392;10.918;2023-02-19T10:03:39;8.40;99.90
42339;DHT22;27993;45.392;10.918;2023-02-19T10:06:26;8.30;99.90
42339;DHT22;27993;45.392;10.918;2023-02-19T10:09:20;8.40;99.90
42339;DHT22;27993;45.392;10.918;2023-02-19T10:11:52;8.30;99.90
42339;DHT22;27993;45.392;10.918;2023-02-19T10:14:36;8.40;99.90
42339;DHT22;27993;45.392;10.918;2023-02-19T10:17:21;8.30;99.90
42339;DHT22;27993;45.392;10.918;2023-02-19T10:19:53;8.30;99.90
42339;DHT22;27993;45.392;10.918;2023-02-19T10:22:24;8.40;99.90
42339;DHT22;27993;45.392;10.918;2023-02-19T10:24:55;8.40;99.90
42339;DHT22;27993;45.392;10.918;2023-02-19T10:27:29;8.50;99.90
42339;DHT22;27993;45.392;10.918;2023-02-19T10:30:00;8.50;99.90
42339;DHT22;27993;45.392;10.918;2023-02-19T10:32:31;8.50;99.90
42339;DHT22;27993;45.392;10.918;2023-02-19T10:35:14;8.50;99.90
42339;DHT22;27993;45.392;10.918;2023-02-19T10:37:49;8.60;99.90
42339;DHT22;27993;45.392;10.918;2023-02-19T10:40:25;8.70;99.90
42339;DHT22;27993;45.392;10.918;2023-02-19T10:42:58;9.00;99.90
42339;DHT22;27993;45.392;10.918;2023-02-19T10:45:44;9.10;99.90
42339;DHT22;27993;45.392;10.918;2023-02-19T10:48:32;9.30;99.90
42339;DHT22;27993;45.392;10.918;2023-02-19T10:51:06;9.60;99.90
42339;DHT22;27993;45.392;10.918;2023-02-19T10:53:46;9.80;99.90
42339;DHT22;27993;45.392;10.918;2023-02-19T10:56:26;10.20;99.90
42339;DHT22;27993;45.392;10.918;2023-02-19T10:59:22;10.50;99.90
42339;DHT22;27993;45.392;10.918;2023-02-19T11:02:02;10.50;99.90
42339;DHT22;27993;45.392;10.918;2023-02-19T11:04:33;10.30;99.90
42339;DHT22;27993;45.392;10.918;2023-02-19T11:07:13;9.90;99.90
42339;DHT22;27993;45.392;10.918;2023-02-19T11:09:46;10.10;99.90
42339;DHT22;27993;45.392;10.918;2023-02-19T11:12:36;9.80;99.90
42339;DHT22;27993;45.392;10.918;2023-02-19T11:15:20;9.90;99.90
42339;DHT22;27993;45.392;10.918;2023-02-19T11:20:50;9.60;99.90
42339;DHT22;27993;45.392;10.918;2023-02-19T11:23:29;9.80;99.90
42339;DHT22;27993;45.392;10.918;2023-02-19T11:26:04;10.00;99.90
42339;DHT22;27993;45.392;10.918;2023-02-19T11:28:38;10.20;99.90
42339;DHT22;27993;45.392;10.918;2023-02-19T11:34:26;10.40;99.90
42339;DHT22;27993;45.392;10.918;2023-02-19T11:37:19;10.30;99.90
42339;DHT22;27993;45.392;10.918;2023-02-19T11:39:52;10.40;99.90
42339;DHT22;27993;45.392;10.918;2023-02-19T11:51:00;10.40;99.90
42339;DHT22;27993;45.392;10.918;2023-02-19T11:53:39;10.30;99.90
42339;DHT22;27993;45.392;10.918;2023-02-19T11:56:18;10.30;99.90
42339;DHT22;27993;45.392;10.918;2023-02-19T11:59:06;10.10;99.90
42339;DHT22;27993;45.392;10.918;2023-02-19T12:10:52;10.70;99.90
42339;DHT22;27993;45.392;10.918;2023-02-19T12:19:06;11.70;99.90
42339;DHT22;27993;45.392;10.918;2023-02-19T12:45:21;11.00;99.90
42339;DHT22;27993;45.392;10.918;2023-02-19T12:48:25;10.90;99.90
42339;DHT22;27993;45.392;10.918;2023-02-19T12:51:12;11.10;99.90
42339;DHT22;27993;45.392;10.918;2023-02-19T12:53:52;11.20;99.90
42339;DHT22;27993;45.392;10.918;2023-02-19T12:56:41;11.40;99.90
42339;DHT22;27993;45.392;10.918;2023-02-19T12:59:14;11.30;99.90
42339;DHT22;27993;45.392;10.918;2023-02-19T13:01:51;11.20;99.90
42339;DHT22;27993;45.392;10.918;2023-02-19T13:09:59;11.20;99.90
42339;DHT22;27993;45.392;10.918;2023-02-19T13:12:39;11.40;99.90
42339;DHT22;27993;45.392;10.918;2023-02-19T13:15:20;11.50;99.90
42339;DHT22;27993;45.392;10.918;2023-02-19T13:17:55;11.50;99.90
42339;DHT22;27993;45.392;10.918;2023-02-19T13:20:31;11.60;99.90
42339;DHT22;27993;45.392;10.918;2023-02-19T13:31:59;11.80;99.90
42339;DHT22;27993;45.392;10.918;2023-02-19T13:37:44;11.90;99.90
42339;DHT22;27993;45.392;10.918;2023-02-19T13:40:34;12.00;99.90
42339;DHT22;27993;45.392;10.918;2023-02-19T13:43:17;12.00;99.90
42339;DHT22;27993;45.392;10.918;2023-02-19T13:45:58;12.00;99.90
42339;DHT22;27993;45.392;10.918;2023-02-19T13:48:35;11.90;99.90
42339;DHT22;27993;45.392;10.918;2023-02-19T13:54:03;12.00;99.90
42339;DHT22;27993;45.392;10.918;2023-02-19T13:56:42;12.10;99.90
42339;DHT22;27993;45.392;10.918;2023-02-19T13:59:37;12.10;99.90
42339;DHT22;27993;45.392;10.918;2023-02-19T14:09:57;12.30;99.90
42339;DHT22;27993;45.392;10.918;2023-02-19T14:12:33;12.40;99.90
42339;DHT22;27993;45.392;10.918;2023-02-19T14:18:43;12.40;99.90
42339;DHT22;27993;45.392;10.918;2023-02-19T14:21:17;12.30;99.90
42339;DHT22;27993;45.392;10.918;2023-02-19T14:23:55;12.20;99.90
42339;DHT22;27993;45.392;10.918;2023-02-19T14:26:26;12.20;99.90
42339;DHT22;27993;45.392;10.918;2023-02-19T14:28:57;12.10;99.90
42339;DHT22;27993;45.392;10.918;2023-02-19T14:31:35;12.20;99.90
42339;DHT22;27993;45.392;10.918;2023-02-19T14:34:16;12.10;99.90
42339;DHT22;27993;45.392;10.918;2023-02-19T14:36:55;12.10;99.90
42339;DHT22;27993;45.392;10.918;2023-02-19T14:39:29;12.10;99.90
42339;DHT22;27993;45.392;10.918;2023-02-19T14:42:04;12.00;99.90
42339;DHT22;27993;45.392;10.918;2023-02-19T14:44:55;12.00;99.90
42339;DHT22;27993;45.392;10.918;2023-02-19T14:47:29;12.00;99.90
42339;DHT22;27993;45.392;10.918;2023-02-19T14:53:14;12.00;99.90
42339;DHT22;27993;45.392;10.918;2023-02-19T14:55:48;12.10;99.90
42339;DHT22;27993;45.392;10.918;2023-02-19T14:58:30;12.10;99.90
42339;DHT22;27993;45.392;10.918;2023-02-19T15:01:02;12.20;99.90
42339;DHT22;27993;45.392;10.918;2023-02-19T15:03:36;12.20;99.90
42339;DHT22;27993;45.392;10.918;2023-02-19T15:06:11;12.20;99.90
42339;DHT22;27993;45.392;10.918;2023-02-19T15:08:46;12.20;99.90
42339;DHT22;27993;45.392;10.918;2023-02-19T15:11:21;12.10;99.90
42339;DHT22;27993;45.392;10.918;2023-02-19T15:13:57;12.10;99.90
42339;DHT22;27993;45.392;10.918;2023-02-19T15:16:30;11.90;99.90
42339;DHT22;27993;45.392;10.918;2023-02-19T15:19:05;11.90;99.90
42339;DHT22;27993;45.392;10.918;2023-02-19T15:21:39;11.90;99.90
42339;DHT22;27993;45.392;10.918;2023-02-19T15:24:15;11.90;99.90
42339;DHT22;27993;45.392;10.918;2023-02-19T15:26:51;11.80;99.90
42339;DHT22;27993;45.392;10.918;2023-02-19T15:29:25;11.80;99.90
42339;DHT22;27993;45.392;10.918;2023-02-19T15:31:59;11.70;99.90
42339;DHT22;27993;45.392;10.918;2023-02-19T15:34:30;11.70;99.90
42339;DHT22;27993;45.392;10.918;2023-02-19T15:37:04;11.70;99.90
42339;DHT22;27993;45.392;10.918;2023-02-19T15:39:46;11.70;99.90
42339;DHT22;27993;45.392;10.918;2023-02-19T15:42:24;11.70;99.90
42339;DHT22;27993;45.392;10.918;2023-02-19T15:45:00;11.60;99.90
42339;DHT22;27993;45.392;10.918;2023-02-19T15:50:17;11.60;99.90
42339;DHT22;27993;45.392;10.918;2023-02-19T15:52:57;11.50;99.90
42339;DHT22;27993;45.392;10.918;2023-02-19T15:58:26;11.40;99.90
42339;DHT22;27993;45.392;10.918;2023-02-19T16:01:04;11.30;99.90
42339;DHT22;27993;45.392;10.918;2023-02-19T16:03:37;11.20;99.90
42339;DHT22;27993;45.392;10.918;2023-02-19T16:06:14;11.10;99.90
42339;DHT22;27993;45.392;10.918;2023-02-19T16:09:04;11.10;99.90
42339;DHT22;27993;45.392;10.918;2023-02-19T16:11:53;11.10;99.90
42339;DHT22;27993;45.392;10.918;2023-02-19T16:14:34;11.10;99.90
42339;DHT22;27993;45.392;10.918;2023-02-19T16:22:16;10.70;99.90
42339;DHT22;27993;45.392;10.918;2023-02-19T16:24:50;10.70;99.90
42339;DHT22;27993;45.392;10.918;2023-02-19T16:30:10;10.60;99.90
42339;DHT22;27993;45.392;10.918;2023-02-19T16:46:51;10.30;99.90
42339;DHT22;27993;45.392;10.918;2023-02-19T16:49:23;10.20;99.90
42339;DHT22;27993;45.392;10.918;2023-02-19T16:51:54;10.20;99.90
42339;DHT22;27993;45.392;10.918;2023-02-19T16:54:25;10.20;99.90
42339;DHT22;27993;45.392;10.918;2023-02-19T16:56:55;10.00;99.90
42339;DHT22;27993;45.392;10.918;2023-02-19T16:59:26;10.10;99.90
42339;DHT22;27993;45.392;10.918;2023-02-19T17:01:57;10.00;99.90
42339;DHT22;27993;45.392;10.918;2023-02-19T17:04:28;10.00;99.90
42339;DHT22;27993;45.392;10.918;2023-02-19T17:07:00;10.00;99.90
42339;DHT22;27993;45.392;10.918;2023-02-19T17:09:31;9.90;99.90
42339;DHT22;27993;45.392;10.918;2023-02-19T17:12:01;9.90;99.90
42339;DHT22;27993;45.392;10.918;2023-02-19T17:14:32;9.90;99.90
42339;DHT22;27993;45.392;10.918;2023-02-19T17:17:03;9.90;99.90
42339;DHT22;27993;45.392;10.918;2023-02-19T17:19:34;9.90;99.90
42339;DHT22;27993;45.392;10.918;2023-02-19T17:22:05;9.80;99.90
42339;DHT22;27993;45.392;10.918;2023-02-19T17:24:36;9.90;99.90
42339;DHT22;27993;45.392;10.918;2023-02-19T17:27:09;9.90;99.90
42339;DHT22;27993;45.392;10.918;2023-02-19T17:29:40;9.80;99.90
42339;DHT22;27993;45.392;10.918;2023-02-19T17:32:11;9.80;99.90
42339;DHT22;27993;45.392;10.918;2023-02-19T17:34:43;9.70;99.90
42339;DHT22;27993;45.392;10.918;2023-02-19T17:37:14;9.70;99.90
42339;DHT22;27993;45.392;10.918;2023-02-19T17:39:45;9.80;99.90
42339;DHT22;27993;45.392;10.918;2023-02-19T17:42:16;9.80;99.90
42339;DHT22;27993;45.392;10.918;2023-02-19T17:44:48;9.80;99.90
42339;DHT22;27993;45.392;10.918;2023-02-19T17:47:20;9.80;99.90
42339;DHT22;27993;45.392;10.918;2023-02-19T17:49:51;9.80;99.90
42339;DHT22;27993;45.392;10.918;2023-02-19T17:52:21;9.80;99.90
42339;DHT22;27993;45.392;10.918;2023-02-19T17:54:52;9.80;99.90
42339;DHT22;27993;45.392;10.918;2023-02-19T17:57:23;9.80;99.90
42339;DHT22;27993;45.392;10.918;2023-02-19T17:59:53;9.70;99.90
42339;DHT22;27993;45.392;10.918;2023-02-19T18:02:24;9.70;99.90
42339;DHT22;27993;45.392;10.918;2023-02-19T18:04:55;9.70;99.90
42339;DHT22;27993;45.392;10.918;2023-02-19T18:07:25;9.70;99.90
42339;DHT22;27993;45.392;10.918;2023-02-19T18:09:56;9.60;99.90
42339;DHT22;27993;45.392;10.918;2023-02-19T18:12:26;9.60;99.90
42339;DHT22;27993;45.392;10.918;2023-02-19T18:14:58;9.50;99.90
42339;DHT22;27993;45.392;10.918;2023-02-19T18:17:28;9.50;99.90
42339;DHT22;27993;45.392;10.918;2023-02-19T18:19:59;9.50;99.90
42339;DHT22;27993;45.392;10.918;2023-02-19T18:22:30;9.40;99.90
42339;DHT22;27993;45.392;10.918;2023-02-19T18:25:01;9.40;99.90
42339;DHT22;27993;45.392;10.918;2023-02-19T18:27:32;9.40;99.90
42339;DHT22;27993;45.392;10.918;2023-02-19T18:30:03;9.40;99.90
42339;DHT22;27993;45.392;10.918;2023-02-19T18:32:34;9.40;99.90
42339;DHT22;27993;45.392;10.918;2023-02-19T18:35:05;9.20;99.90
42339;DHT22;27993;45.392;10.918;2023-02-19T18:37:36;9.20;99.90
42339;DHT22;27993;45.392;10.918;2023-02-19T18:40:07;9.30;99.90
42339;DHT22;27993;45.392;10.918;2023-02-19T18:42:38;9.30;99.90
42339;DHT22;27993;45.392;10.918;2023-02-19T18:45:09;9.30;99.90
42339;DHT22;27993;45.392;10.918;2023-02-19T18:47:40;9.20;99.90
42339;DHT22;27993;45.392;10.918;2023-02-19T18:50:11;9.40;99.90